createdAt,value
2023-03-26T00:05:53.768Z,53.90
2023-03-26T00:20:55.514Z,48.77
2023-03-26T00:35:57.256Z,47.77
2023-03-26T00:50:58.778Z,47.03
2023-03-26T01:06:00.236Z,46.07
2023-03-26T01:21:01.727Z,41.90
2023-03-26T01:36:03.244Z,41.50
2023-03-26T01:51:04.767Z,37.90
2023-03-26T02:06:06.353Z,36.77
2023-03-26T02:21:07.885Z,35.43
2023-03-26T02:36:09.482Z,34.30
2023-03-26T02:51:10.965Z,31.43
2023-03-26T03:06:12.492Z,29.93
2023-03-26T03:21:13.952Z,29.17
2023-03-26T03:36:19.715Z,28.53
2023-03-26T03:51:22.568Z,26.03
2023-03-26T04:06:24.218Z,25.07
2023-03-26T04:21:25.847Z,24.77
2023-03-26T04:36:27.338Z,23.37
2023-03-26T04:51:28.977Z,21.20
2023-03-26T05:06:30.568Z,20.67
2023-03-26T05:21:32.142Z,19.57
2023-03-26T05:36:33.693Z,18.33
2023-03-26T05:51:35.209Z,17.70
2023-03-26T06:06:36.723Z,16.77
2023-03-26T06:21:38.280Z,14.10
2023-03-26T06:36:39.974Z,13.43
2023-03-26T06:51:41.652Z,13.20
2023-03-26T07:06:43.224Z,12.93
2023-03-26T07:21:44.767Z,11.97
2023-03-26T07:36:46.285Z,11.90
2023-03-26T07:51:47.786Z,11.10
2023-03-26T08:06:49.333Z,11.47
2023-03-26T08:21:51.102Z,11.07
2023-03-26T08:36:52.770Z,10.33
2023-03-26T08:51:54.470Z,10.00
2023-03-26T09:06:56.293Z,10.00
2023-03-26T09:21:57.909Z,9.80
2023-03-26T09:36:59.479Z,8.80
2023-03-26T09:52:01.012Z,8.93
2023-03-26T10:07:02.952Z,57.63
2023-03-26T10:22:04.523Z,59.77
2023-03-26T10:37:06.047Z,56.53
2023-03-26T10:52:07.586Z,55.40
2023-03-26T11:07:09.131Z,53.37
2023-03-26T11:22:10.881Z,50.17
2023-03-26T11:37:12.416Z,46.43
2023-03-26T11:52:13.905Z,42.30
2023-03-26T12:07:15.463Z,36.83
2023-03-26T12:22:17.022Z,32.27
2023-03-26T12:37:18.810Z,30.57
2023-03-26T12:52:21.076Z,30.30
2023-03-26T13:07:22.731Z,26.80
2023-03-26T13:22:24.232Z,23.37
2023-03-26T13:37:25.821Z,22.00
2023-03-26T13:52:27.383Z,19.27
2023-03-26T14:07:28.848Z,17.67
2023-03-26T14:22:30.282Z,17.10
2023-03-26T14:37:31.755Z,15.47
2023-03-26T14:52:33.226Z,14.73
2023-03-26T15:07:34.786Z,13.50
2023-03-26T15:22:36.340Z,12.37
2023-03-26T15:37:37.803Z,11.13
2023-03-26T15:52:39.351Z,10.70
2023-03-26T16:07:40.878Z,10.57
2023-03-26T16:22:43.850Z,9.20
2023-03-26T16:37:45.581Z,9.70
2023-03-26T16:52:47.163Z,8.20
2023-03-26T17:07:48.702Z,7.80
2023-03-26T17:22:50.709Z,8.10
2023-03-26T17:37:52.296Z,7.63
2023-03-26T17:52:56.637Z,7.60
2023-03-26T18:07:58.138Z,6.03
2023-03-26T18:22:59.669Z,6.37
2023-03-26T18:38:01.186Z,6.00
2023-03-26T18:53:02.824Z,5.37
2023-03-26T19:08:04.333Z,5.27
2023-03-26T19:23:05.872Z,5.87
2023-03-26T19:38:07.395Z,5.47
2023-03-26T19:53:16.049Z,5.60
2023-03-26T20:08:18.685Z,5.00
2023-03-26T20:23:20.234Z,4.43
2023-03-26T20:38:26.552Z,5.03
2023-03-26T20:53:34.474Z,4.20
2023-03-26T21:08:35.923Z,4.47
2023-03-26T21:23:39.114Z,4.33
2023-03-26T21:38:40.695Z,4.10
2023-03-26T21:53:42.199Z,4.33
2023-03-26T22:08:43.987Z,4.13
2023-03-26T22:23:45.445Z,3.80
2023-03-26T22:38:46.921Z,3.87
2023-03-26T22:53:48.396Z,3.67
2023-03-26T23:08:49.972Z,3.30
2023-03-26T23:23:51.452Z,3.33
2023-03-26T23:38:52.919Z,3.53
2023-03-26T23:53:54.421Z,3.43
